sensor_id;sensor_type;location;lat;lon;timestamp;pressure;altitude;pressure_sealevel;temperature;humidity
68871;BME280;55906;52.278;6.808;2022-11-09T00:01:26;100410.31;;;14.97;71.33
68871;BME280;55906;52.278;6.808;2022-11-09T00:03:53;100412.97;;;15.00;71.36
68871;BME280;55906;52.278;6.808;2022-11-09T00:06:21;100422.69;;;14.96;71.32
68871;BME280;55906;52.278;6.808;2022-11-09T00:08:48;100400.59;;;14.90;71.94
68871;BME280;55906;52.278;6.808;2022-11-09T00:11:15;100402.38;;;14.88;71.64
68871;BME280;55906;52.278;6.808;2022-11-09T00:13:43;100404.13;;;14.92;71.83
68871;BME280;55906;52.278;6.808;2022-11-09T00:16:12;100409.44;;;14.95;71.91
68871;BME280;55906;52.278;6.808;2022-11-09T00:18:39;100407.66;;;14.88;72.14
68871;BME280;55906;52.278;6.808;2022-11-09T00:21:13;100409.41;;;14.84;72.30
68871;BME280;55906;52.278;6.808;2022-11-09T00:23:40;100413.84;;;14.81;72.29
68871;BME280;55906;52.278;6.808;2022-11-09T00:26:08;100412.06;;;14.83;72.25
68871;BME280;55906;52.278;6.808;2022-11-09T00:28:35;100409.41;;;14.78;72.45
68871;BME280;55906;52.278;6.808;2022-11-09T00:31:06;100403.22;;;14.75;72.55
68871;BME280;55906;52.278;6.808;2022-11-09T00:33:33;100402.34;;;14.79;72.47
68871;BME280;55906;52.278;6.808;2022-11-09T00:36:02;100402.34;;;14.76;72.67
68871;BME280;55906;52.278;6.808;2022-11-09T00:38:31;100410.31;;;14.83;72.36
68871;BME280;55906;52.278;6.808;2022-11-09T00:40:59;100400.59;;;14.84;72.11
68871;BME280;55906;52.278;6.808;2022-11-09T00:43:26;100383.81;;;14.82;71.91
68871;BME280;55906;52.278;6.808;2022-11-09T00:45:52;100397.94;;;14.91;71.55
68871;BME280;55906;52.278;6.808;2022-11-09T00:48:20;100406.78;;;14.89;71.51
68871;BME280;55906;52.278;6.808;2022-11-09T00:50:50;100402.38;;;14.88;71.72
68871;BME280;55906;52.278;6.808;2022-11-09T00:53:18;100392.66;;;14.88;71.60
68871;BME280;55906;52.278;6.808;2022-11-09T00:55:53;100396.19;;;14.87;71.82
68871;BME280;55906;52.278;6.808;2022-11-09T00:58:20;100418.25;;;14.86;71.73
68871;BME280;55906;52.278;6.808;2022-11-09T01:00:47;100417.38;;;14.83;71.88
68871;BME280;55906;52.278;6.808;2022-11-09T01:03:13;100413.84;;;14.81;71.96
68871;BME280;55906;52.278;6.808;2022-11-09T01:05:41;100408.53;;;14.81;71.89
68871;BME280;55906;52.278;6.808;2022-11-09T01:08:08;100417.34;;;14.75;72.76
68871;BME280;55906;52.278;6.808;2022-11-09T01:10:35;100415.59;;;14.74;72.77
68871;BME280;55906;52.278;6.808;2022-11-09T01:13:04;100414.69;;;14.69;72.89
68871;BME280;55906;52.278;6.808;2022-11-09T01:15:31;100415.59;;;14.74;72.88
68871;BME280;55906;52.278;6.808;2022-11-09T01:17:58;100421.78;;;14.71;72.91
68871;BME280;55906;52.278;6.808;2022-11-09T01:20:24;100427.94;;;14.69;73.01
68871;BME280;55906;52.278;6.808;2022-11-09T01:22:53;100421.75;;;14.68;73.02
68871;BME280;55906;52.278;6.808;2022-11-09T01:25:20;100425.28;;;14.70;72.87
68871;BME280;55906;52.278;6.808;2022-11-09T01:27:47;100421.75;;;14.68;73.30
68871;BME280;55906;52.278;6.808;2022-11-09T01:30:13;100420.00;;;14.67;73.50
68871;BME280;55906;52.278;6.808;2022-11-09T01:32:40;100419.13;;;14.68;73.05
68871;BME280;55906;52.278;6.808;2022-11-09T01:35:07;100427.06;;;14.68;73.16
68871;BME280;55906;52.278;6.808;2022-11-09T01:37:34;100420.88;;;14.76;72.88
68871;BME280;55906;52.278;6.808;2022-11-09T01:40:02;100412.06;;;14.77;72.59
68871;BME280;55906;52.278;6.808;2022-11-09T01:42:30;100412.94;;;14.76;72.59
68871;BME280;55906;52.278;6.808;2022-11-09T01:45:22;100407.66;;;14.76;72.43
68871;BME280;55906;52.278;6.808;2022-11-09T01:47:52;100412.94;;;14.74;72.68
68871;BME280;55906;52.278;6.808;2022-11-09T01:50:32;100427.06;;;14.75;72.98
68871;BME280;55906;52.278;6.808;2022-11-09T01:53:02;100417.34;;;14.75;73.11
68871;BME280;55906;52.278;6.808;2022-11-09T01:55:31;100398.81;;;14.73;72.99
68871;BME280;55906;52.278;6.808;2022-11-09T01:58:00;100401.47;;;14.72;73.18
68871;BME280;55906;52.278;6.808;2022-11-09T02:00:29;100412.06;;;14.73;73.24
68871;BME280;55906;52.278;6.808;2022-11-09T02:02:59;100410.28;;;14.68;73.62
68871;BME280;55906;52.278;6.808;2022-11-09T02:05:30;100414.72;;;14.72;73.33
68871;BME280;55906;52.278;6.808;2022-11-09T02:08:00;100412.94;;;14.69;73.67
68871;BME280;55906;52.278;6.808;2022-11-09T02:10:32;100406.75;;;14.73;73.41
68871;BME280;55906;52.278;6.808;2022-11-09T02:13:01;100409.41;;;14.73;73.48
68871;BME280;55906;52.278;6.808;2022-11-09T02:15:28;100414.72;;;14.73;73.06
68871;BME280;55906;52.278;6.808;2022-11-09T02:17:56;100412.94;;;14.79;73.10
68871;BME280;55906;52.278;6.808;2022-11-09T02:20:24;100413.84;;;14.82;73.10
68871;BME280;55906;52.278;6.808;2022-11-09T02:22:52;100409.41;;;14.83;73.06
68871;BME280;55906;52.278;6.808;2022-11-09T02:25:19;100407.66;;;14.79;73.21
68871;BME280;55906;52.278;6.808;2022-11-09T02:27:46;100413.84;;;14.82;73.31
68871;BME280;55906;52.278;6.808;2022-11-09T02:30:13;100412.94;;;14.82;73.45
68871;BME280;55906;52.278;6.808;2022-11-09T02:32:41;100411.19;;;14.78;73.98
68871;BME280;55906;52.278;6.808;2022-11-09T02:35:08;100405.88;;;14.73;74.16
68871;BME280;55906;52.278;6.808;2022-11-09T02:37:38;100406.75;;;14.72;73.86
68871;BME280;55906;52.278;6.808;2022-11-09T02:40:09;100410.31;;;14.79;73.68
68871;BME280;55906;52.278;6.808;2022-11-09T02:42:38;100401.47;;;14.73;73.88
68871;BME280;55906;52.278;6.808;2022-11-09T02:45:06;100400.59;;;14.73;73.96
68871;BME280;55906;52.278;6.808;2022-11-09T02:47:33;100393.53;;;14.72;74.00
68871;BME280;55906;52.278;6.808;2022-11-09T02:49:59;100394.41;;;14.68;74.25
68871;BME280;55906;52.278;6.808;2022-11-09T02:52:26;100384.69;;;14.62;74.47
68871;BME280;55906;52.278;6.808;2022-11-09T02:54:54;100396.16;;;14.61;74.46
68871;BME280;55906;52.278;6.808;2022-11-09T02:57:20;100395.28;;;14.59;74.74
68871;BME280;55906;52.278;6.808;2022-11-09T02:59:47;100393.50;;;14.54;75.04
68871;BME280;55906;52.278;6.808;2022-11-09T03:02:14;100400.56;;;14.52;74.98
68871;BME280;55906;52.278;6.808;2022-11-09T03:04:40;100407.63;;;14.56;74.91
68871;BME280;55906;52.278;6.808;2022-11-09T03:07:07;100412.91;;;14.48;74.80
68871;BME280;55906;52.278;6.808;2022-11-09T03:09:34;100414.66;;;14.48;74.95
68871;BME280;55906;52.278;6.808;2022-11-09T03:12:02;100401.44;;;14.51;74.77
68871;BME280;55906;52.278;6.808;2022-11-09T03:14:48;100405.84;;;14.50;74.79
68871;BME280;55906;52.278;6.808;2022-11-09T03:17:15;100418.19;;;14.48;74.88
68871;BME280;55906;52.278;6.808;2022-11-09T03:19:43;100407.59;;;14.51;74.83
68871;BME280;55906;52.278;6.808;2022-11-09T03:22:10;100434.06;;;14.47;74.80
68871;BME280;55906;52.278;6.808;2022-11-09T03:24:36;100425.25;;;14.52;74.64
68871;BME280;55906;52.278;6.808;2022-11-09T03:27:04;100416.41;;;14.47;74.52
68871;BME280;55906;52.278;6.808;2022-11-09T03:29:31;100416.44;;;14.50;74.26
68871;BME280;55906;52.278;6.808;2022-11-09T03:31:57;100430.53;;;14.49;74.26
68871;BME280;55906;52.278;6.808;2022-11-09T03:34:24;100429.66;;;14.46;74.27
68871;BME280;55906;52.278;6.808;2022-11-09T03:36:51;100424.34;;;14.44;74.27
68871;BME280;55906;52.278;6.808;2022-11-09T03:39:18;100418.19;;;14.45;74.19
68871;BME280;55906;52.278;6.808;2022-11-09T03:41:44;100427.88;;;14.43;74.31
68871;BME280;55906;52.278;6.808;2022-11-09T03:44:12;100426.97;;;14.41;74.24
68871;BME280;55906;52.278;6.808;2022-11-09T03:46:39;100424.28;;;14.33;74.37
68871;BME280;55906;52.278;6.808;2022-11-09T03:49:05;100437.53;;;14.38;74.59
68871;BME280;55906;52.278;6.808;2022-11-09T03:51:33;100437.53;;;14.35;74.53
68871;BME280;55906;52.278;6.808;2022-11-09T03:53:59;100436.63;;;14.33;74.51
68871;BME280;55906;52.278;6.808;2022-11-09T03:56:26;100433.09;;;14.31;74.76
68871;BME280;55906;52.278;6.808;2022-11-09T03:58:53;100426.94;;;14.33;74.53
68871;BME280;55906;52.278;6.808;2022-11-09T04:01:21;100426.94;;;14.32;74.61
68871;BME280;55906;52.278;6.808;2022-11-09T04:03:47;100420.78;;;14.36;74.58
68871;BME280;55906;52.278;6.808;2022-11-09T04:06:14;100425.16;;;14.31;74.45
68871;BME280;55906;52.278;6.808;2022-11-09T04:08:41;100425.16;;;14.31;74.40
68871;BME280;55906;52.278;6.808;2022-11-09T04:11:07;100440.16;;;14.32;74.32
68871;BME280;55906;52.278;6.808;2022-11-09T04:13:34;100434.88;;;14.30;74.39
68871;BME280;55906;52.278;6.808;2022-11-09T04:16:00;100446.28;;;14.28;74.51
68871;BME280;55906;52.278;6.808;2022-11-09T04:18:28;100444.53;;;14.27;74.45
68871;BME280;55906;52.278;6.808;2022-11-09T04:20:56;100448.03;;;14.23;74.46
68871;BME280;55906;52.278;6.808;2022-11-09T04:23:23;100447.16;;;14.24;74.51
68871;BME280;55906;52.278;6.808;2022-11-09T04:25:50;100452.44;;;14.21;74.59
68871;BME280;55906;52.278;6.808;2022-11-09T04:28:17;100468.31;;;14.19;74.54
68871;BME280;55906;52.278;6.808;2022-11-09T04:30:43;100459.47;;;14.19;74.48
68871;BME280;55906;52.278;6.808;2022-11-09T04:33:10;100457.72;;;14.22;74.13
68871;BME280;55906;52.278;6.808;2022-11-09T04:35:38;100461.25;;;14.23;74.06
68871;BME280;55906;52.278;6.808;2022-11-09T04:38:06;100477.13;;;14.20;74.28
68871;BME280;55906;52.278;6.808;2022-11-09T04:40:34;100478.00;;;14.22;73.92
68871;BME280;55906;52.278;6.808;2022-11-09T04:43:02;100478.91;;;14.24;73.68
68871;BME280;55906;52.278;6.808;2022-11-09T04:45:29;100471.84;;;14.24;73.62
68871;BME280;55906;52.278;6.808;2022-11-09T04:47:56;100483.31;;;14.25;73.14
68871;BME280;55906;52.278;6.808;2022-11-09T04:50:24;100490.38;;;14.26;73.05
68871;BME280;55906;52.278;6.808;2022-11-09T04:52:52;100483.31;;;14.23;72.94
68871;BME280;55906;52.278;6.808;2022-11-09T04:55:18;100483.31;;;14.22;73.06
68871;BME280;55906;52.278;6.808;2022-11-09T04:57:45;100486.78;;;14.15;73.26
68871;BME280;55906;52.278;6.808;2022-11-09T05:00:12;100486.78;;;14.13;73.25
68871;BME280;55906;52.278;6.808;2022-11-09T05:02:38;100506.19;;;14.10;73.43
68871;BME280;55906;52.278;6.808;2022-11-09T05:05:06;100497.31;;;14.05;73.61
68871;BME280;55906;52.278;6.808;2022-11-09T05:07:32;100497.34;;;14.08;73.40
68871;BME280;55906;52.278;6.808;2022-11-09T05:10:00;100495.56;;;14.04;73.69
68871;BME280;55906;52.278;6.808;2022-11-09T05:12:27;100493.78;;;14.00;73.90
68871;BME280;55906;52.278;6.808;2022-11-09T05:14:53;100490.22;;;13.97;73.84
68871;BME280;55906;52.278;6.808;2022-11-09T05:17:20;100484.91;;;13.92;74.02
68871;BME280;55906;52.278;6.808;2022-11-09T05:19:47;100497.22;;;13.89;74.29
68871;BME280;55906;52.278;6.808;2022-11-09T05:22:13;100496.38;;;13.91;74.29
68871;BME280;55906;52.278;6.808;2022-11-09T05:25:08;100498.09;;;13.86;74.29
68871;BME280;55906;52.278;6.808;2022-11-09T05:27:34;100498.13;;;13.89;74.14
68871;BME280;55906;52.278;6.808;2022-11-09T05:30:04;100504.22;;;13.81;74.52
68871;BME280;55906;52.278;6.808;2022-11-09T05:32:31;100500.72;;;13.82;74.52
68871;BME280;55906;52.278;6.808;2022-11-09T05:34:57;100498.94;;;13.79;74.97
68871;BME280;55906;52.278;6.808;2022-11-09T05:37:24;100498.91;;;13.74;75.17
68871;BME280;55906;52.278;6.808;2022-11-09T05:39:51;100513.03;;;13.81;74.99
68871;BME280;55906;52.278;6.808;2022-11-09T05:42:18;100508.59;;;13.75;75.04
68871;BME280;55906;52.278;6.808;2022-11-09T05:44:45;100509.44;;;13.70;75.52
68871;BME280;55906;52.278;6.808;2022-11-09T05:47:12;100514.78;;;13.79;75.23
68871;BME280;55906;52.278;6.808;2022-11-09T05:49:38;100505.06;;;13.73;75.79
68871;BME280;55906;52.278;6.808;2022-11-09T05:52:05;100507.66;;;13.69;75.88
68871;BME280;55906;52.278;6.808;2022-11-09T05:54:31;100516.44;;;13.65;76.49
68871;BME280;55906;52.278;6.808;2022-11-09T05:56:58;100511.16;;;13.65;76.35
68871;BME280;55906;52.278;6.808;2022-11-09T05:59:27;100519.06;;;13.59;76.73
68871;BME280;55906;52.278;6.808;2022-11-09T06:01:53;100518.13;;;13.54;76.92
68871;BME280;55906;52.278;6.808;2022-11-09T06:04:20;100518.16;;;13.57;76.81
68871;BME280;55906;52.278;6.808;2022-11-09T06:06:47;100511.97;;;13.56;77.04
68871;BME280;55906;52.278;6.808;2022-11-09T06:09:14;100509.28;;;13.50;77.16
68871;BME280;55906;52.278;6.808;2022-11-09T06:11:40;100520.72;;;13.48;77.29
68871;BME280;55906;52.278;6.808;2022-11-09T06:14:07;100528.66;;;13.49;77.25
68871;BME280;55906;52.278;6.808;2022-11-09T06:16:35;100518.94;;;13.45;77.54
68871;BME280;55906;52.278;6.808;2022-11-09T06:19:02;100525.09;;;13.45;77.29
68871;BME280;55906;52.278;6.808;2022-11-09T06:21:28;100520.66;;;13.38;77.30
68871;BME280;55906;52.278;6.808;2022-11-09T06:23:55;100525.03;;;13.35;77.53
68871;BME280;55906;52.278;6.808;2022-11-09T06:26:21;100523.22;;;13.32;77.83
68871;BME280;55906;52.278;6.808;2022-11-09T06:28:48;100544.34;;;13.29;77.91
68871;BME280;55906;52.278;6.808;2022-11-09T06:31:15;100533.78;;;13.29;77.96
68871;BME280;55906;52.278;6.808;2022-11-09T06:33:43;100542.56;;;13.28;77.95
68871;BME280;55906;52.278;6.808;2022-11-09T06:36:10;100538.22;;;13.33;77.95
68871;BME280;55906;52.278;6.808;2022-11-09T06:38:37;100532.03;;;13.31;77.78
68871;BME280;55906;52.278;6.808;2022-11-09T06:41:04;100539.09;;;13.32;77.65
68871;BME280;55906;52.278;6.808;2022-11-09T06:43:31;100540.00;;;13.36;77.72
68871;BME280;55906;52.278;6.808;2022-11-09T06:45:58;100539.97;;;13.33;77.93
68871;BME280;55906;52.278;6.808;2022-11-09T06:48:27;100534.66;;;13.31;78.04
68871;BME280;55906;52.278;6.808;2022-11-09T06:50:59;100539.94;;;13.30;77.94
68871;BME280;55906;52.278;6.808;2022-11-09T06:53:26;100553.13;;;13.27;77.96
68871;BME280;55906;52.278;6.808;2022-11-09T06:55:56;100554.88;;;13.26;78.27
68871;BME280;55906;52.278;6.808;2022-11-09T06:58:23;100546.09;;;13.27;77.99
68871;BME280;55906;52.278;6.808;2022-11-09T07:00:50;100552.22;;;13.25;78.18
68871;BME280;55906;52.278;6.808;2022-11-09T07:03:18;100549.53;;;13.20;78.39
68871;BME280;55906;52.278;6.808;2022-11-09T07:05:45;100554.81;;;13.20;78.67
68871;BME280;55906;52.278;6.808;2022-11-09T07:08:15;100561.03;;;13.25;78.42
68871;BME280;55906;52.278;6.808;2022-11-09T07:10:42;100561.03;;;13.25;78.56
68871;BME280;55906;52.278;6.808;2022-11-09T07:13:09;100566.31;;;13.24;78.35
68871;BME280;55906;52.278;6.808;2022-11-09T07:15:37;100567.16;;;13.23;78.49
68871;BME280;55906;52.278;6.808;2022-11-09T07:18:05;100568.00;;;13.19;78.76
68871;BME280;55906;52.278;6.808;2022-11-09T07:20:33;100562.72;;;13.19;78.93
68871;BME280;55906;52.278;6.808;2022-11-09T07:23:00;100568.94;;;13.22;78.70
68871;BME280;55906;52.278;6.808;2022-11-09T07:25:28;100567.19;;;13.24;78.34
68871;BME280;55906;52.278;6.808;2022-11-09T07:27:54;100562.75;;;13.22;78.62
68871;BME280;55906;52.278;6.808;2022-11-09T07:30:27;100568.94;;;13.24;78.05
68871;BME280;55906;52.278;6.808;2022-11-09T07:32:53;100576.03;;;13.28;78.00
68871;BME280;55906;52.278;6.808;2022-11-09T07:35:22;100571.56;;;13.22;78.19
68871;BME280;55906;52.278;6.808;2022-11-09T07:37:48;100575.97;;;13.23;78.13
68871;BME280;55906;52.278;6.808;2022-11-09T07:40:15;100569.88;;;13.30;77.83
68871;BME280;55906;52.278;6.808;2022-11-09T07:42:43;100567.47;;;13.53;77.30
68871;BME280;55906;52.278;6.808;2022-11-09T07:45:10;100575.53;;;13.71;76.67
68871;BME280;55906;52.278;6.808;2022-11-09T07:47:37;100580.16;;;13.97;75.83
68871;BME280;55906;52.278;6.808;2022-11-09T07:50:04;100584.75;;;14.24;75.02
68871;BME280;55906;52.278;6.808;2022-11-09T07:52:31;100582.19;;;14.36;73.74
68871;BME280;55906;52.278;6.808;2022-11-09T07:54:57;100573.50;;;14.55;73.63
68871;BME280;55906;52.278;6.808;2022-11-09T07:57:24;100571.81;;;14.72;72.15
68871;BME280;55906;52.278;6.808;2022-11-09T07:59:52;100578.94;;;14.86;71.54
68871;BME280;55906;52.278;6.808;2022-11-09T08:02:18;100579.00;;;15.04;71.09
68871;BME280;55906;52.278;6.808;2022-11-09T08:04:45;100580.81;;;15.31;70.40
68871;BME280;55906;52.278;6.808;2022-11-09T08:07:12;100575.53;;;15.48;69.75
68871;BME280;55906;52.278;6.808;2022-11-09T08:09:38;100573.81;;;15.59;68.47
68871;BME280;55906;52.278;6.808;2022-11-09T08:12:05;100590.66;;;15.78;67.61
68871;BME280;55906;52.278;6.808;2022-11-09T08:14:32;100581.81;;;15.95;66.53
68871;BME280;55906;52.278;6.808;2022-11-09T08:17:00;100581.78;;;16.11;66.35
68871;BME280;55906;52.278;6.808;2022-11-09T08:19:26;100580.00;;;16.26;65.84
68871;BME280;55906;52.278;6.808;2022-11-09T08:21:53;100574.63;;;16.48;64.02
68871;BME280;55906;52.278;6.808;2022-11-09T08:24:22;100589.66;;;16.55;63.73
68871;BME280;55906;52.278;6.808;2022-11-09T08:26:49;100593.25;;;16.37;64.07
68871;BME280;55906;52.278;6.808;2022-11-09T08:29:15;100591.47;;;16.42;64.05
68871;BME280;55906;52.278;6.808;2022-11-09T08:31:42;100600.31;;;16.41;64.15
68871;BME280;55906;52.278;6.808;2022-11-09T08:34:11;100595.88;;;16.42;64.22
68871;BME280;55906;52.278;6.808;2022-11-09T08:36:38;100603.78;;;16.61;63.73
68871;BME280;55906;52.278;6.808;2022-11-09T08:39:05;100592.28;;;16.75;63.03
68871;BME280;55906;52.278;6.808;2022-11-09T08:41:31;100600.19;;;16.85;62.59
68871;BME280;55906;52.278;6.808;2022-11-09T08:43:58;100601.97;;;16.88;62.71
68871;BME280;55906;52.278;6.808;2022-11-09T08:46:25;100600.13;;;17.08;62.00
68871;BME280;55906;52.278;6.808;2022-11-09T08:48:52;100609.78;;;17.26;61.62
68871;BME280;55906;52.278;6.808;2022-11-09T08:51:20;100601.81;;;17.23;61.17
68871;BME280;55906;52.278;6.808;2022-11-09T08:53:46;100612.34;;;17.40;60.30
68871;BME280;55906;52.278;6.808;2022-11-09T08:56:13;100606.97;;;17.47;60.55
68871;BME280;55906;52.278;6.808;2022-11-09T08:58:43;100603.50;;;17.39;60.60
68871;BME280;55906;52.278;6.808;2022-11-09T09:01:10;100610.47;;;17.54;60.19
68871;BME280;55906;52.278;6.808;2022-11-09T09:03:37;100612.22;;;17.58;59.15
68871;BME280;55906;52.278;6.808;2022-11-09T09:06:05;100609.41;;;17.82;58.90
68871;BME280;55906;52.278;6.808;2022-11-09T09:08:34;100613.88;;;17.80;57.93
68871;BME280;55906;52.278;6.808;2022-11-09T09:11:01;100617.56;;;17.55;59.10
68871;BME280;55906;52.278;6.808;2022-11-09T09:13:28;100623.09;;;17.18;59.61
68871;BME280;55906;52.278;6.808;2022-11-09T09:15:54;100613.47;;;16.99;60.42
68871;BME280;55906;52.278;6.808;2022-11-09T09:18:21;100607.28;;;16.88;60.50
68871;BME280;55906;52.278;6.808;2022-11-09T09:20:48;100618.84;;;16.72;61.21
68871;BME280;55906;52.278;6.808;2022-11-09T09:23:15;100621.50;;;16.72;61.33
68871;BME280;55906;52.278;6.808;2022-11-09T09:25:43;100630.38;;;16.71;61.51
68871;BME280;55906;52.278;6.808;2022-11-09T09:28:09;100634.81;;;16.52;62.37
68871;BME280;55906;52.278;6.808;2022-11-09T09:30:36;100628.63;;;16.48;62.30
68871;BME280;55906;52.278;6.808;2022-11-09T09:33:03;100621.53;;;16.47;62.46
68871;BME280;55906;52.278;6.808;2022-11-09T09:35:29;100651.66;;;16.31;62.66
68871;BME280;55906;52.278;6.808;2022-11-09T09:37:56;100633.03;;;16.46;62.94
68871;BME280;55906;52.278;6.808;2022-11-09T09:40:25;100634.84;;;16.38;63.05
68871;BME280;55906;52.278;6.808;2022-11-09T09:42:56;100639.28;;;16.27;63.46
68871;BME280;55906;52.278;6.808;2022-11-09T09:45:27;100647.25;;;16.21;63.16
68871;BME280;55906;52.278;6.808;2022-11-09T09:47:58;100632.13;;;16.59;62.21
68871;BME280;55906;52.278;6.808;2022-11-09T09:50:28;100662.22;;;16.64;62.00
68871;BME280;55906;52.278;6.808;2022-11-09T09:53:00;100650.75;;;16.43;62.20
68871;BME280;55906;52.278;6.808;2022-11-09T09:55:35;100649.84;;;16.51;62.16
68871;BME280;55906;52.278;6.808;2022-11-09T09:58:08;100656.94;;;16.55;61.79
68871;BME280;55906;52.278;6.808;2022-11-09T10:00:36;100649.88;;;16.36;62.29
68871;BME280;55906;52.278;6.808;2022-11-09T10:03:04;100658.75;;;16.35;61.96
68871;BME280;55906;52.278;6.808;2022-11-09T10:05:40;100647.22;;;16.47;61.74
68871;BME280;55906;52.278;6.808;2022-11-09T10:08:15;100651.63;;;16.49;61.43
68871;BME280;55906;52.278;6.808;2022-11-09T10:10:53;100655.16;;;16.50;61.54
68871;BME280;55906;52.278;6.808;2022-11-09T10:13:37;100665.81;;;16.44;61.53
68871;BME280;55906;52.278;6.808;2022-11-09T10:16:11;100672.00;;;16.35;62.15
68871;BME280;55906;52.278;6.808;2022-11-09T10:18:52;100667.56;;;16.48;61.42
68871;BME280;55906;52.278;6.808;2022-11-09T10:21:30;100682.59;;;16.56;61.56
68871;BME280;55906;52.278;6.808;2022-11-09T10:24:06;100675.53;;;16.45;62.10
68871;BME280;55906;52.278;6.808;2022-11-09T10:26:40;100673.78;;;16.22;62.21
68871;BME280;55906;52.278;6.808;2022-11-09T10:29:19;100672.00;;;16.35;62.25
68871;BME280;55906;52.278;6.808;2022-11-09T10:31:49;100664.94;;;16.36;62.29
68871;BME280;55906;52.278;6.808;2022-11-09T10:34:18;100671.13;;;16.39;62.20
68871;BME280;55906;52.278;6.808;2022-11-09T10:36:51;100655.16;;;16.51;61.55
68871;BME280;55906;52.278;6.808;2022-11-09T10:39:20;100670.16;;;16.97;59.45
68871;BME280;55906;52.278;6.808;2022-11-09T10:41:49;100664.84;;;16.95;59.47
68871;BME280;55906;52.278;6.808;2022-11-09T10:44:18;100674.56;;;17.05;59.25
68871;BME280;55906;52.278;6.808;2022-11-09T10:47:10;100666.63;;;16.96;59.15
68871;BME280;55906;52.278;6.808;2022-11-09T10:49:38;100662.91;;;17.34;58.09
68871;BME280;55906;52.278;6.808;2022-11-09T10:52:29;100669.19;;;17.17;58.67
68871;BME280;55906;52.278;6.808;2022-11-09T10:55:15;100655.88;;;17.23;58.03
68871;BME280;55906;52.278;6.808;2022-11-09T10:57:49;100661.03;;;17.51;58.02
68871;BME280;55906;52.278;6.808;2022-11-09T11:00:20;100661.09;;;17.43;58.11
68871;BME280;55906;52.278;6.808;2022-11-09T11:02:47;100644.91;;;17.83;56.90
68871;BME280;55906;52.278;6.808;2022-11-09T11:05:32;100661.56;;;18.08;56.61
68871;BME280;55906;52.278;6.808;2022-11-09T11:08:23;100643.00;;;17.99;56.22
68871;BME280;55906;52.278;6.808;2022-11-09T11:10:50;100636.88;;;17.86;56.40
68871;BME280;55906;52.278;6.808;2022-11-09T11:13:20;100648.41;;;17.89;56.74
68871;BME280;55906;52.278;6.808;2022-11-09T11:15:48;100640.59;;;17.57;57.14
68871;BME280;55906;52.278;6.808;2022-11-09T11:18:19;100651.41;;;17.32;57.60
68871;BME280;55906;52.278;6.808;2022-11-09T11:20:46;100645.28;;;17.11;58.06
68871;BME280;55906;52.278;6.808;2022-11-09T11:23:15;100640.88;;;17.09;58.38
68871;BME280;55906;52.278;6.808;2022-11-09T11:26:30;100643.41;;;17.36;57.88
68871;BME280;55906;52.278;6.808;2022-11-09T11:29:00;100636.25;;;17.44;57.66
68871;BME280;55906;52.278;6.808;2022-11-09T11:31:31;100648.34;;;17.96;56.36
68871;BME280;55906;52.278;6.808;2022-11-09T11:33:58;100648.56;;;17.64;56.92
68871;BME280;55906;52.278;6.808;2022-11-09T11:36:32;100646.72;;;17.76;56.25
68871;BME280;55906;52.278;6.808;2022-11-09T11:39:12;100659.00;;;17.96;55.69
68871;BME280;55906;52.278;6.808;2022-11-09T11:41:53;100653.06;;;17.52;56.27
68871;BME280;55906;52.278;6.808;2022-11-09T11:44:33;100664.66;;;17.39;56.60
68871;BME280;55906;52.278;6.808;2022-11-09T11:47:08;100662.09;;;17.22;57.30
68871;BME280;55906;52.278;6.808;2022-11-09T11:49:55;100671.00;;;17.06;57.56
68871;BME280;55906;52.278;6.808;2022-11-09T11:52:31;100655.13;;;16.82;58.33
68871;BME280;55906;52.278;6.808;2022-11-09T11:55:15;100656.94;;;16.69;58.51
68871;BME280;55906;52.278;6.808;2022-11-09T11:57:52;100665.81;;;16.38;59.73
68871;BME280;55906;52.278;6.808;2022-11-09T12:00:23;100675.56;;;16.26;60.58
68871;BME280;55906;52.278;6.808;2022-11-09T12:03:05;100675.56;;;16.14;61.13
68871;BME280;55906;52.278;6.808;2022-11-09T12:06:07;100674.69;;;16.08;60.76
68871;BME280;55906;52.278;6.808;2022-11-09T12:08:45;100668.47;;;16.04;61.10
68871;BME280;55906;52.278;6.808;2022-11-09T12:11:25;100682.63;;;15.98;61.49
68871;BME280;55906;52.278;6.808;2022-11-09T12:14:03;100684.41;;;15.89;61.86
68871;BME280;55906;52.278;6.808;2022-11-09T12:16:40;100664.94;;;15.81;62.13
68871;BME280;55906;52.278;6.808;2022-11-09T12:19:35;100685.25;;;15.74;62.22
68871;BME280;55906;52.278;6.808;2022-11-09T12:22:10;100661.38;;;15.71;62.53
68871;BME280;55906;52.278;6.808;2022-11-09T12:24:46;100666.69;;;15.85;61.95
68871;BME280;55906;52.278;6.808;2022-11-09T12:27:34;100656.09;;;15.80;61.68
68871;BME280;55906;52.278;6.808;2022-11-09T12:30:08;100664.03;;;15.74;61.76
68871;BME280;55906;52.278;6.808;2022-11-09T12:32:42;100680.84;;;15.75;61.88
68871;BME280;55906;52.278;6.808;2022-11-09T12:35:23;100672.88;;;15.73;61.97
68871;BME280;55906;52.278;6.808;2022-11-09T12:37:54;100665.81;;;15.71;62.19
68871;BME280;55906;52.278;6.808;2022-11-09T12:40:23;100687.00;;;15.64;62.93
68871;BME280;55906;52.278;6.808;2022-11-09T12:42:55;100686.94;;;15.57;63.92
68871;BME280;55906;52.278;6.808;2022-11-09T12:45:28;100674.53;;;15.54;63.74
68871;BME280;55906;52.278;6.808;2022-11-09T12:47:59;100671.88;;;15.53;64.35
68871;BME280;55906;52.278;6.808;2022-11-09T12:50:31;100674.63;;;15.60;63.83
68871;BME280;55906;52.278;6.808;2022-11-09T12:53:00;100675.47;;;15.59;63.43
68871;BME280;55906;52.278;6.808;2022-11-09T12:55:34;100673.72;;;15.60;63.34
68871;BME280;55906;52.278;6.808;2022-11-09T12:58:05;100672.78;;;15.56;63.15
68871;BME280;55906;52.278;6.808;2022-11-09T13:00:46;100675.47;;;15.59;63.08
68871;BME280;55906;52.278;6.808;2022-11-09T13:03:18;100681.63;;;15.57;63.16